Ginys del Meteocat

Dades de l'estació automàtica Ascó

?
?
Resum diari 21:30 TU
Dades diàries de l'estació meteorològica
Temperatura mitjana 6.1 °C
Temperatura màxima 11.6 °C 15:04 TU
Temperatura mínima 1.9 °C 7:15 TU
Humitat relativa mitjana 94%
Precipitació acumulada 0.3 mm
Ratxa màxima del vent (2 m) 11.5 km/h - 14º 14:20 TU
Irradiació solar global 7.9 MJ/m2

El tram horari està expressat en Temps Universal (TU). Cal sumar una hora en horari d'hivern i dues en horari d'estiu per passar a l'hora oficial.

Ascó

Metadades estació meteorol´gica
Municipi Ascó
Comarca Ribera d'Ebre
Altitud 257 m
Data alta 15.06.1998
Estat actual Operativa
Dades de període
Període
TU
TM
°C
TX
°C
TN
°C
HRM
%
PPT
mm
VVM (2 m)
km/h
DVM (2 m)
graus
VVX (2 m)
km/h
RS
W/m2
00:00 - 00:30 5.4 5.7 5.1 98 0.0 3.2 258 5.8 0
00:30 - 01:00 5.8 6.2 5.4 97 0.0 3.2 258 6.1 0
01:00 - 01:30 5.6 5.7 5.3 98 0.0 1.8 262 4.3 0
01:30 - 02:00 5.5 5.6 5.2 98 0.0 2.2 266 4.3 0
02:00 - 02:30 5.0 5.3 4.4 98 0.0 2.5 259 4.3 0
02:30 - 03:00 4.6 4.8 4.3 98 0.0 4.0 254 7.2 0
03:00 - 03:30 4.9 5.3 4.5 98 0.0 3.6 256 5.8 0
03:30 - 04:00 4.5 5.1 4.2 98 0.1 1.1 250 4.0 0
04:00 - 04:30 3.9 4.3 3.5 98 0.0 2.5 252 4.0 0
04:30 - 05:00 3.7 4.3 3.4 99 0.0 1.4 241 3.6 0
05:00 - 05:30 3.5 4.0 3.1 99 0.0 1.8 258 4.7 0
05:30 - 06:00 3.5 4.0 3.2 99 0.0 1.1 276 4.0 0
06:00 - 06:30 3.5 3.8 3.4 99 0.0 2.9 257 6.1 0
06:30 - 07:00 2.9 3.4 2.5 99 0.0 0.7 254 4.0 0
07:00 - 07:30 2.2 2.6 1.9 99 0.0 0.4 193 2.5 5
07:30 - 08:00 2.1 2.3 2.0 99 0.0 0.7 233 2.9 26
08:00 - 08:30 2.5 2.9 2.2 99 0.0 1.4 159 5.0 77
08:30 - 09:00 3.4 3.7 3.0 99 0.2 1.4 79 4.3 130
09:00 - 09:30 4.0 4.3 3.6 99 0.0 1.1 87 4.0 155
09:30 - 10:00 4.6 4.8 4.3 99 0.0 1.8 70 6.1 197
10:00 - 10:30 4.8 5.3 4.5 99 0.0 2.5 55 6.5 196
10:30 - 11:00 5.1 5.5 4.9 99 0.0 1.8 66 4.7 232
11:00 - 11:30 5.7 6.0 5.4 99 0.0 1.8 75 4.7 256
11:30 - 12:00 6.3 6.6 6.0 99 0.0 2.5 74 6.5 330
12:00 - 12:30 6.9 7.2 6.3 99 0.0 2.9 83 6.1 355
12:30 - 13:00 7.5 8.2 7.2 99 0.0 3.2 83 6.8 438
13:00 - 13:30 9.0 9.8 8.2 93 0.0 4.0 96 8.3 449
13:30 - 14:00 10.0 10.8 9.4 86 0.0 4.3 56 7.9 425
14:00 - 14:30 10.9 11.1 10.6 81 0.0 5.8 15 11.5 344
14:30 - 15:00 11.1 11.4 10.6 79 0.0 4.3 20 8.6 314
15:00 - 15:30 11.4 11.6 11.2 73 0.0 4.7 13 9.7 253
15:30 - 16:00 10.9 11.2 10.7 77 0.0 3.2 350 7.6 136
16:00 - 16:30 10.0 10.6 9.0 83 0.0 2.2 310 7.2 41
16:30 - 17:00 8.5 9.0 7.8 90 0.0 2.5 254 5.8 15
17:00 - 17:30 7.6 8.1 7.3 90 0.0 2.9 258 5.4 2
17:30 - 18:00 7.1 7.6 6.5 88 0.0 4.0 253 7.2 0
18:00 - 18:30 6.5 7.0 6.2 88 0.0 3.6 254 6.1 0
18:30 - 19:00 6.5 7.2 5.8 91 0.0 3.6 254 6.1 0
19:00 - 19:30 6.6 7.1 6.4 92 0.0 2.5 251 5.8 0
19:30 - 20:00 6.8 7.2 6.5 94 0.0 1.8 271 4.3 0
20:00 - 20:30 7.2 7.4 6.9 95 0.0 0.4 285 2.9 0
20:30 - 21:00 7.0 7.1 6.8 96 0.0 1.4 252 4.0 0
21:00 - 21:30 6.4 6.7 6.1 97 0.0 2.5 254 4.7 0
21:30 - 22:00 6.5 6.6 6.3 97 0.0 2.9 259 4.3 0

Les dades en taronja només han passat un control de qualitat automàtic. Resta pendent la seva validació definitiva.